sensor_id;sensor_type;location;lat;lon;timestamp;temperature;humidity
13172;DHT22;6651;53.200;10.432;2023-09-12T00:00:43;20.50;99.90
13172;DHT22;6651;53.200;10.432;2023-09-12T00:03:09;20.50;99.90
13172;DHT22;6651;53.200;10.432;2023-09-12T00:05:34;20.50;99.90
13172;DHT22;6651;53.200;10.432;2023-09-12T00:08:00;20.40;99.90
13172;DHT22;6651;53.200;10.432;2023-09-12T00:10:25;20.50;99.90
13172;DHT22;6651;53.200;10.432;2023-09-12T00:12:51;20.40;99.90
13172;DHT22;6651;53.200;10.432;2023-09-12T00:15:17;20.40;99.90
13172;DHT22;6651;53.200;10.432;2023-09-12T00:17:44;20.40;99.90
13172;DHT22;6651;53.200;10.432;2023-09-12T00:20:10;20.40;99.90
13172;DHT22;6651;53.200;10.432;2023-09-12T00:22:36;20.40;99.90
13172;DHT22;6651;53.200;10.432;2023-09-12T00:25:02;20.30;99.90
13172;DHT22;6651;53.200;10.432;2023-09-12T00:27:28;20.30;99.90
13172;DHT22;6651;53.200;10.432;2023-09-12T00:29:54;20.20;99.90
13172;DHT22;6651;53.200;10.432;2023-09-12T00:32:19;20.10;99.90
13172;DHT22;6651;53.200;10.432;2023-09-12T00:34:45;20.10;99.90
13172;DHT22;6651;53.200;10.432;2023-09-12T00:37:11;20.10;99.90
13172;DHT22;6651;53.200;10.432;2023-09-12T00:39:37;20.10;99.90
13172;DHT22;6651;53.200;10.432;2023-09-12T00:42:03;20.00;99.90
13172;DHT22;6651;53.200;10.432;2023-09-12T00:44:28;20.00;99.90
13172;DHT22;6651;53.200;10.432;2023-09-12T00:46:54;20.00;99.90
13172;DHT22;6651;53.200;10.432;2023-09-12T00:49:21;20.00;99.90
13172;DHT22;6651;53.200;10.432;2023-09-12T00:51:48;20.00;99.90
13172;DHT22;6651;53.200;10.432;2023-09-12T00:54:14;19.90;99.90
13172;DHT22;6651;53.200;10.432;2023-09-12T00:56:40;19.90;99.90
13172;DHT22;6651;53.200;10.432;2023-09-12T00:59:06;19.90;99.90
13172;DHT22;6651;53.200;10.432;2023-09-12T01:01:32;19.80;99.90
13172;DHT22;6651;53.200;10.432;2023-09-12T01:04:02;19.70;99.90
13172;DHT22;6651;53.200;10.432;2023-09-12T01:06:29;19.70;99.90
13172;DHT22;6651;53.200;10.432;2023-09-12T01:08:55;19.70;99.90
13172;DHT22;6651;53.200;10.432;2023-09-12T01:11:21;19.70;99.90
13172;DHT22;6651;53.200;10.432;2023-09-12T01:13:47;19.70;99.90
13172;DHT22;6651;53.200;10.432;2023-09-12T01:16:13;19.70;99.90
13172;DHT22;6651;53.200;10.432;2023-09-12T01:18:38;19.70;99.90
13172;DHT22;6651;53.200;10.432;2023-09-12T01:21:32;19.70;99.90
13172;DHT22;6651;53.200;10.432;2023-09-12T01:26:49;19.50;99.90
13172;DHT22;6651;53.200;10.432;2023-09-12T01:29:17;19.50;99.90
13172;DHT22;6651;53.200;10.432;2023-09-12T01:31:46;19.50;99.90
13172;DHT22;6651;53.200;10.432;2023-09-12T01:34:13;19.50;99.90
13172;DHT22;6651;53.200;10.432;2023-09-12T01:36:39;19.40;99.90
13172;DHT22;6651;53.200;10.432;2023-09-12T01:39:05;19.40;99.90
13172;DHT22;6651;53.200;10.432;2023-09-12T01:41:33;19.40;99.90
13172;DHT22;6651;53.200;10.432;2023-09-12T01:44:01;19.30;99.90
13172;DHT22;6651;53.200;10.432;2023-09-12T01:46:28;19.30;99.90
13172;DHT22;6651;53.200;10.432;2023-09-12T01:48:56;19.40;99.90
13172;DHT22;6651;53.200;10.432;2023-09-12T01:51:24;19.40;99.90
13172;DHT22;6651;53.200;10.432;2023-09-12T01:53:51;19.40;99.90
13172;DHT22;6651;53.200;10.432;2023-09-12T01:56:18;19.50;99.90
13172;DHT22;6651;53.200;10.432;2023-09-12T01:58:44;19.60;99.90
13172;DHT22;6651;53.200;10.432;2023-09-12T02:01:11;19.60;99.90
13172;DHT22;6651;53.200;10.432;2023-09-12T02:03:36;19.50;99.90
13172;DHT22;6651;53.200;10.432;2023-09-12T02:06:02;19.50;99.90
13172;DHT22;6651;53.200;10.432;2023-09-12T02:08:28;19.40;99.90
13172;DHT22;6651;53.200;10.432;2023-09-12T02:10:54;19.50;99.90
13172;DHT22;6651;53.200;10.432;2023-09-12T02:13:20;19.50;99.90
13172;DHT22;6651;53.200;10.432;2023-09-12T02:15:45;19.50;99.90
13172;DHT22;6651;53.200;10.432;2023-09-12T02:18:11;19.60;99.90
13172;DHT22;6651;53.200;10.432;2023-09-12T02:20:40;19.60;99.90
13172;DHT22;6651;53.200;10.432;2023-09-12T02:23:06;19.60;99.90
13172;DHT22;6651;53.200;10.432;2023-09-12T02:25:32;19.60;99.90
13172;DHT22;6651;53.200;10.432;2023-09-12T02:27:58;19.60;99.90
13172;DHT22;6651;53.200;10.432;2023-09-12T02:30:23;19.60;99.90
13172;DHT22;6651;53.200;10.432;2023-09-12T02:32:49;19.60;99.90
13172;DHT22;6651;53.200;10.432;2023-09-12T02:35:15;19.60;99.90
13172;DHT22;6651;53.200;10.432;2023-09-12T02:37:40;19.60;99.90
13172;DHT22;6651;53.200;10.432;2023-09-12T02:40:09;19.60;99.90
13172;DHT22;6651;53.200;10.432;2023-09-12T02:42:37;19.60;99.90
13172;DHT22;6651;53.200;10.432;2023-09-12T02:45:04;19.50;99.90
13172;DHT22;6651;53.200;10.432;2023-09-12T02:47:29;19.50;99.90
13172;DHT22;6651;53.200;10.432;2023-09-12T02:49:55;19.50;99.90
13172;DHT22;6651;53.200;10.432;2023-09-12T02:52:21;19.50;99.90
13172;DHT22;6651;53.200;10.432;2023-09-12T02:54:46;19.60;99.90
13172;DHT22;6651;53.200;10.432;2023-09-12T02:57:12;19.60;99.90
13172;DHT22;6651;53.200;10.432;2023-09-12T02:59:37;19.60;99.90
13172;DHT22;6651;53.200;10.432;2023-09-12T03:02:03;19.50;99.90
13172;DHT22;6651;53.200;10.432;2023-09-12T03:04:29;19.50;99.90
13172;DHT22;6651;53.200;10.432;2023-09-12T03:06:55;19.50;99.90
13172;DHT22;6651;53.200;10.432;2023-09-12T03:09:20;19.40;99.90
13172;DHT22;6651;53.200;10.432;2023-09-12T03:11:49;19.40;99.90
13172;DHT22;6651;53.200;10.432;2023-09-12T03:14:14;19.40;99.90
13172;DHT22;6651;53.200;10.432;2023-09-12T03:16:40;19.30;99.90
13172;DHT22;6651;53.200;10.432;2023-09-12T03:19:05;19.30;99.90
13172;DHT22;6651;53.200;10.432;2023-09-12T03:21:32;19.30;99.90
13172;DHT22;6651;53.200;10.432;2023-09-12T03:23:57;19.30;99.90
13172;DHT22;6651;53.200;10.432;2023-09-12T03:26:23;19.20;99.90
13172;DHT22;6651;53.200;10.432;2023-09-12T03:28:51;19.20;99.90
13172;DHT22;6651;53.200;10.432;2023-09-12T03:31:18;19.20;99.90
13172;DHT22;6651;53.200;10.432;2023-09-12T03:33:44;19.20;99.90
13172;DHT22;6651;53.200;10.432;2023-09-12T03:36:15;19.20;99.90
13172;DHT22;6651;53.200;10.432;2023-09-12T03:38:41;19.20;99.90
13172;DHT22;6651;53.200;10.432;2023-09-12T03:41:06;19.20;99.90
13172;DHT22;6651;53.200;10.432;2023-09-12T03:43:33;19.20;99.90
13172;DHT22;6651;53.200;10.432;2023-09-12T03:45:59;19.20;99.90
13172;DHT22;6651;53.200;10.432;2023-09-12T03:48:25;19.20;99.90
13172;DHT22;6651;53.200;10.432;2023-09-12T03:50:50;19.20;99.90
13172;DHT22;6651;53.200;10.432;2023-09-12T03:53:16;19.10;99.90
13172;DHT22;6651;53.200;10.432;2023-09-12T03:55:42;19.10;99.90
13172;DHT22;6651;53.200;10.432;2023-09-12T03:58:08;19.10;99.90
13172;DHT22;6651;53.200;10.432;2023-09-12T04:00:34;19.20;99.90
13172;DHT22;6651;53.200;10.432;2023-09-12T04:02:59;19.20;99.90
13172;DHT22;6651;53.200;10.432;2023-09-12T04:05:26;19.10;99.90
13172;DHT22;6651;53.200;10.432;2023-09-12T04:07:51;19.20;99.90
13172;DHT22;6651;53.200;10.432;2023-09-12T04:10:19;19.10;99.90
13172;DHT22;6651;53.200;10.432;2023-09-12T04:12:45;19.10;99.90
13172;DHT22;6651;53.200;10.432;2023-09-12T04:15:11;19.10;99.90
13172;DHT22;6651;53.200;10.432;2023-09-12T04:17:36;19.10;99.90
13172;DHT22;6651;53.200;10.432;2023-09-12T04:20:02;19.10;99.90
13172;DHT22;6651;53.200;10.432;2023-09-12T04:22:30;19.10;99.90
13172;DHT22;6651;53.200;10.432;2023-09-12T04:24:56;19.10;99.90
13172;DHT22;6651;53.200;10.432;2023-09-12T04:27:22;19.10;99.90
13172;DHT22;6651;53.200;10.432;2023-09-12T04:29:48;19.10;99.90
13172;DHT22;6651;53.200;10.432;2023-09-12T04:32:13;19.10;99.90
13172;DHT22;6651;53.200;10.432;2023-09-12T04:34:42;19.10;99.90
13172;DHT22;6651;53.200;10.432;2023-09-12T04:37:08;19.00;99.90
13172;DHT22;6651;53.200;10.432;2023-09-12T04:39:34;19.00;99.90
13172;DHT22;6651;53.200;10.432;2023-09-12T04:41:59;19.00;99.90
13172;DHT22;6651;53.200;10.432;2023-09-12T04:44:25;19.00;99.90
13172;DHT22;6651;53.200;10.432;2023-09-12T04:46:50;19.00;99.90
13172;DHT22;6651;53.200;10.432;2023-09-12T04:49:16;18.90;99.90
13172;DHT22;6651;53.200;10.432;2023-09-12T04:51:42;18.90;99.90
13172;DHT22;6651;53.200;10.432;2023-09-12T04:54:08;18.90;99.90
13172;DHT22;6651;53.200;10.432;2023-09-12T04:56:34;18.90;99.90
13172;DHT22;6651;53.200;10.432;2023-09-12T04:59:00;18.80;99.90
13172;DHT22;6651;53.200;10.432;2023-09-12T05:01:25;18.90;99.90
13172;DHT22;6651;53.200;10.432;2023-09-12T05:03:51;18.90;99.90
13172;DHT22;6651;53.200;10.432;2023-09-12T05:06:17;18.80;99.90
13172;DHT22;6651;53.200;10.432;2023-09-12T05:08:42;18.80;99.90
13172;DHT22;6651;53.200;10.432;2023-09-12T05:11:08;18.80;99.90
13172;DHT22;6651;53.200;10.432;2023-09-12T05:13:34;18.90;99.90
13172;DHT22;6651;53.200;10.432;2023-09-12T05:16:00;18.90;99.90
13172;DHT22;6651;53.200;10.432;2023-09-12T05:18:26;18.90;99.90
13172;DHT22;6651;53.200;10.432;2023-09-12T05:20:52;18.90;99.90
13172;DHT22;6651;53.200;10.432;2023-09-12T05:23:18;18.90;99.90
13172;DHT22;6651;53.200;10.432;2023-09-12T05:25:43;18.80;99.90
13172;DHT22;6651;53.200;10.432;2023-09-12T05:28:09;18.80;99.90
13172;DHT22;6651;53.200;10.432;2023-09-12T05:30:35;18.80;99.90
13172;DHT22;6651;53.200;10.432;2023-09-12T05:33:01;18.80;99.90
13172;DHT22;6651;53.200;10.432;2023-09-12T05:35:27;18.80;99.90
13172;DHT22;6651;53.200;10.432;2023-09-12T05:37:53;18.80;99.90
13172;DHT22;6651;53.200;10.432;2023-09-12T05:40:19;18.80;99.90
13172;DHT22;6651;53.200;10.432;2023-09-12T05:42:44;18.80;99.90
13172;DHT22;6651;53.200;10.432;2023-09-12T05:45:10;18.80;99.90
13172;DHT22;6651;53.200;10.432;2023-09-12T05:47:36;18.80;99.90
13172;DHT22;6651;53.200;10.432;2023-09-12T05:50:02;18.70;99.90
13172;DHT22;6651;53.200;10.432;2023-09-12T05:52:31;18.80;99.90
13172;DHT22;6651;53.200;10.432;2023-09-12T05:54:56;18.80;99.90
13172;DHT22;6651;53.200;10.432;2023-09-12T05:57:22;18.80;99.90
13172;DHT22;6651;53.200;10.432;2023-09-12T05:59:47;18.90;99.90
13172;DHT22;6651;53.200;10.432;2023-09-12T06:02:13;18.90;99.90
13172;DHT22;6651;53.200;10.432;2023-09-12T06:04:39;18.90;99.90
13172;DHT22;6651;53.200;10.432;2023-09-12T06:07:04;18.90;99.90
13172;DHT22;6651;53.200;10.432;2023-09-12T06:09:30;18.80;99.90
13172;DHT22;6651;53.200;10.432;2023-09-12T06:11:56;18.80;99.90
13172;DHT22;6651;53.200;10.432;2023-09-12T06:14:22;18.90;99.90
13172;DHT22;6651;53.200;10.432;2023-09-12T06:16:48;18.90;99.90
13172;DHT22;6651;53.200;10.432;2023-09-12T06:19:14;18.90;99.90
13172;DHT22;6651;53.200;10.432;2023-09-12T06:21:40;18.90;99.90
13172;DHT22;6651;53.200;10.432;2023-09-12T06:24:11;18.90;99.90
13172;DHT22;6651;53.200;10.432;2023-09-12T06:26:38;18.90;99.90
13172;DHT22;6651;53.200;10.432;2023-09-12T06:29:03;18.80;99.90
13172;DHT22;6651;53.200;10.432;2023-09-12T06:31:29;18.80;99.90
13172;DHT22;6651;53.200;10.432;2023-09-12T06:33:55;18.90;99.90
13172;DHT22;6651;53.200;10.432;2023-09-12T06:36:21;18.90;99.90
13172;DHT22;6651;53.200;10.432;2023-09-12T06:38:47;19.00;99.90
13172;DHT22;6651;53.200;10.432;2023-09-12T06:41:13;19.10;99.90
13172;DHT22;6651;53.200;10.432;2023-09-12T06:43:39;19.10;99.90
13172;DHT22;6651;53.200;10.432;2023-09-12T06:46:04;19.10;99.90
13172;DHT22;6651;53.200;10.432;2023-09-12T06:48:30;19.20;99.90
13172;DHT22;6651;53.200;10.432;2023-09-12T06:50:55;19.20;99.90
13172;DHT22;6651;53.200;10.432;2023-09-12T06:53:21;19.30;99.90
13172;DHT22;6651;53.200;10.432;2023-09-12T06:55:47;19.40;99.90
13172;DHT22;6651;53.200;10.432;2023-09-12T06:58:12;19.40;99.90
13172;DHT22;6651;53.200;10.432;2023-09-12T07:00:38;19.40;99.90
13172;DHT22;6651;53.200;10.432;2023-09-12T07:03:04;19.40;99.90
13172;DHT22;6651;53.200;10.432;2023-09-12T07:05:30;19.30;99.90
13172;DHT22;6651;53.200;10.432;2023-09-12T07:07:55;19.30;99.90
13172;DHT22;6651;53.200;10.432;2023-09-12T07:10:21;19.30;99.90
13172;DHT22;6651;53.200;10.432;2023-09-12T07:12:47;19.20;99.90
13172;DHT22;6651;53.200;10.432;2023-09-12T07:15:13;19.20;99.90
13172;DHT22;6651;53.200;10.432;2023-09-12T07:17:39;19.20;99.90
13172;DHT22;6651;53.200;10.432;2023-09-12T07:20:05;19.10;99.90
13172;DHT22;6651;53.200;10.432;2023-09-12T07:22:37;19.10;99.90
13172;DHT22;6651;53.200;10.432;2023-09-12T07:25:03;19.10;99.90
13172;DHT22;6651;53.200;10.432;2023-09-12T07:27:28;19.10;99.90
13172;DHT22;6651;53.200;10.432;2023-09-12T07:29:54;19.10;99.90
13172;DHT22;6651;53.200;10.432;2023-09-12T07:32:20;19.10;99.90
13172;DHT22;6651;53.200;10.432;2023-09-12T07:34:46;19.10;99.90
13172;DHT22;6651;53.200;10.432;2023-09-12T07:37:14;19.00;99.90
13172;DHT22;6651;53.200;10.432;2023-09-12T07:39:40;19.10;99.90
13172;DHT22;6651;53.200;10.432;2023-09-12T07:42:05;19.10;99.90
13172;DHT22;6651;53.200;10.432;2023-09-12T07:44:31;19.00;99.90
13172;DHT22;6651;53.200;10.432;2023-09-12T07:46:57;19.00;99.90
13172;DHT22;6651;53.200;10.432;2023-09-12T07:49:22;19.00;99.90
13172;DHT22;6651;53.200;10.432;2023-09-12T07:51:51;19.10;99.90
13172;DHT22;6651;53.200;10.432;2023-09-12T07:54:17;19.10;99.90
13172;DHT22;6651;53.200;10.432;2023-09-12T07:56:43;19.20;99.90
13172;DHT22;6651;53.200;10.432;2023-09-12T07:59:09;19.20;99.90
13172;DHT22;6651;53.200;10.432;2023-09-12T08:01:36;19.20;99.90
13172;DHT22;6651;53.200;10.432;2023-09-12T08:04:02;19.20;99.90
13172;DHT22;6651;53.200;10.432;2023-09-12T08:06:28;19.20;99.90
13172;DHT22;6651;53.200;10.432;2023-09-12T08:08:54;19.20;99.90
13172;DHT22;6651;53.200;10.432;2023-09-12T08:11:19;19.20;99.90
13172;DHT22;6651;53.200;10.432;2023-09-12T08:13:48;19.20;99.90
13172;DHT22;6651;53.200;10.432;2023-09-12T08:16:15;19.20;99.90
13172;DHT22;6651;53.200;10.432;2023-09-12T08:18:41;19.20;99.90
13172;DHT22;6651;53.200;10.432;2023-09-12T08:21:07;19.20;99.90
13172;DHT22;6651;53.200;10.432;2023-09-12T08:23:33;19.20;99.90
13172;DHT22;6651;53.200;10.432;2023-09-12T08:25:59;19.20;99.90
13172;DHT22;6651;53.200;10.432;2023-09-12T08:28:25;19.30;99.90
13172;DHT22;6651;53.200;10.432;2023-09-12T08:30:51;19.30;99.90
13172;DHT22;6651;53.200;10.432;2023-09-12T08:33:17;19.30;99.90
13172;DHT22;6651;53.200;10.432;2023-09-12T08:35:42;19.30;99.90
13172;DHT22;6651;53.200;10.432;2023-09-12T08:38:08;19.40;99.90
13172;DHT22;6651;53.200;10.432;2023-09-12T08:40:34;19.60;99.90
13172;DHT22;6651;53.200;10.432;2023-09-12T08:43:01;19.60;99.90
13172;DHT22;6651;53.200;10.432;2023-09-12T08:45:29;19.60;99.90
13172;DHT22;6651;53.200;10.432;2023-09-12T08:47:56;19.60;99.90
13172;DHT22;6651;53.200;10.432;2023-09-12T08:50:22;19.60;99.90
13172;DHT22;6651;53.200;10.432;2023-09-12T08:52:52;19.60;99.90
13172;DHT22;6651;53.200;10.432;2023-09-12T08:55:18;19.80;99.90
13172;DHT22;6651;53.200;10.432;2023-09-12T08:57:44;19.90;99.90
13172;DHT22;6651;53.200;10.432;2023-09-12T09:00:12;20.00;99.90
13172;DHT22;6651;53.200;10.432;2023-09-12T09:02:43;20.00;99.90
13172;DHT22;6651;53.200;10.432;2023-09-12T09:05:10;20.00;99.90
13172;DHT22;6651;53.200;10.432;2023-09-12T09:07:37;20.10;99.90
13172;DHT22;6651;53.200;10.432;2023-09-12T09:10:04;20.20;99.90
13172;DHT22;6651;53.200;10.432;2023-09-12T09:12:31;20.30;99.90
13172;DHT22;6651;53.200;10.432;2023-09-12T09:14:57;20.30;99.90
13172;DHT22;6651;53.200;10.432;2023-09-12T09:17:23;20.40;99.90
13172;DHT22;6651;53.200;10.432;2023-09-12T09:19:49;20.50;99.90
13172;DHT22;6651;53.200;10.432;2023-09-12T09:22:14;20.60;99.90
13172;DHT22;6651;53.200;10.432;2023-09-12T09:24:40;20.70;99.90
13172;DHT22;6651;53.200;10.432;2023-09-12T09:27:06;20.80;99.90
13172;DHT22;6651;53.200;10.432;2023-09-12T09:29:32;20.80;99.90
13172;DHT22;6651;53.200;10.432;2023-09-12T09:32:00;20.80;99.90
13172;DHT22;6651;53.200;10.432;2023-09-12T09:34:30;20.90;99.90
13172;DHT22;6651;53.200;10.432;2023-09-12T09:36:57;20.90;99.90
13172;DHT22;6651;53.200;10.432;2023-09-12T09:39:25;20.90;99.90
13172;DHT22;6651;53.200;10.432;2023-09-12T09:41:55;20.90;99.90
13172;DHT22;6651;53.200;10.432;2023-09-12T09:44:22;20.90;99.90
13172;DHT22;6651;53.200;10.432;2023-09-12T09:46:52;20.90;99.90
13172;DHT22;6651;53.200;10.432;2023-09-12T09:49:20;20.90;99.90
13172;DHT22;6651;53.200;10.432;2023-09-12T09:51:46;21.00;99.90
13172;DHT22;6651;53.200;10.432;2023-09-12T09:54:12;21.00;99.90
13172;DHT22;6651;53.200;10.432;2023-09-12T09:56:58;21.10;99.90
13172;DHT22;6651;53.200;10.432;2023-09-12T09:59:25;21.20;99.90
13172;DHT22;6651;53.200;10.432;2023-09-12T10:01:57;21.20;99.90
13172;DHT22;6651;53.200;10.432;2023-09-12T10:04:23;21.30;99.90
13172;DHT22;6651;53.200;10.432;2023-09-12T10:06:55;21.30;99.90
13172;DHT22;6651;53.200;10.432;2023-09-12T10:09:23;21.30;99.90
13172;DHT22;6651;53.200;10.432;2023-09-12T10:11:51;21.30;99.90
13172;DHT22;6651;53.200;10.432;2023-09-12T10:14:19;21.30;99.90
13172;DHT22;6651;53.200;10.432;2023-09-12T10:16:47;21.20;99.90
13172;DHT22;6651;53.200;10.432;2023-09-12T10:19:26;21.20;99.90
13172;DHT22;6651;53.200;10.432;2023-09-12T10:24:43;21.20;99.90
13172;DHT22;6651;53.200;10.432;2023-09-12T10:27:11;21.20;99.90
13172;DHT22;6651;53.200;10.432;2023-09-12T10:29:37;21.30;99.90
13172;DHT22;6651;53.200;10.432;2023-09-12T10:32:03;21.30;99.90
13172;DHT22;6651;53.200;10.432;2023-09-12T10:34:31;21.20;99.90
13172;DHT22;6651;53.200;10.432;2023-09-12T10:36:58;21.20;99.90
13172;DHT22;6651;53.200;10.432;2023-09-12T10:39:27;21.20;99.90
13172;DHT22;6651;53.200;10.432;2023-09-12T10:41:54;21.20;99.90
13172;DHT22;6651;53.200;10.432;2023-09-12T10:44:20;21.00;99.90
13172;DHT22;6651;53.200;10.432;2023-09-12T10:46:47;20.90;99.90
13172;DHT22;6651;53.200;10.432;2023-09-12T10:49:15;20.90;99.90
13172;DHT22;6651;53.200;10.432;2023-09-12T10:51:45;20.80;99.90
13172;DHT22;6651;53.200;10.432;2023-09-12T10:54:16;20.70;99.90
13172;DHT22;6651;53.200;10.432;2023-09-12T10:57:05;20.60;99.90
13172;DHT22;6651;53.200;10.432;2023-09-12T10:59:31;20.50;99.90
13172;DHT22;6651;53.200;10.432;2023-09-12T11:02:30;20.50;99.90
13172;DHT22;6651;53.200;10.432;2023-09-12T11:04:58;20.50;99.90
13172;DHT22;6651;53.200;10.432;2023-09-12T11:12:45;20.40;99.90
13172;DHT22;6651;53.200;10.432;2023-09-12T11:15:11;20.40;99.90
13172;DHT22;6651;53.200;10.432;2023-09-12T11:17:38;20.40;99.90
13172;DHT22;6651;53.200;10.432;2023-09-12T11:20:04;20.30;99.90
13172;DHT22;6651;53.200;10.432;2023-09-12T11:22:37;20.20;99.90
13172;DHT22;6651;53.200;10.432;2023-09-12T11:25:05;20.10;99.90
13172;DHT22;6651;53.200;10.432;2023-09-12T11:30:22;20.20;99.90
13172;DHT22;6651;53.200;10.432;2023-09-12T11:32:53;20.20;99.90
13172;DHT22;6651;53.200;10.432;2023-09-12T11:35:38;20.10;99.90
13172;DHT22;6651;53.200;10.432;2023-09-12T11:38:10;20.10;99.90
13172;DHT22;6651;53.200;10.432;2023-09-12T11:43:02;20.00;99.90
13172;DHT22;6651;53.200;10.432;2023-09-12T11:45:31;19.90;99.90
13172;DHT22;6651;53.200;10.432;2023-09-12T11:47:58;19.90;99.90
13172;DHT22;6651;53.200;10.432;2023-09-12T11:50:30;20.00;99.90
13172;DHT22;6651;53.200;10.432;2023-09-12T11:53:11;20.00;99.90
13172;DHT22;6651;53.200;10.432;2023-09-12T11:55:47;20.00;99.90
13172;DHT22;6651;53.200;10.432;2023-09-12T11:58:14;20.00;99.90
13172;DHT22;6651;53.200;10.432;2023-09-12T12:00:57;20.00;99.90
13172;DHT22;6651;53.200;10.432;2023-09-12T12:03:25;20.00;99.90
13172;DHT22;6651;53.200;10.432;2023-09-12T12:05:51;19.90;99.90
13172;DHT22;6651;53.200;10.432;2023-09-12T12:08:18;19.90;99.90
13172;DHT22;6651;53.200;10.432;2023-09-12T12:10:44;19.80;99.90
13172;DHT22;6651;53.200;10.432;2023-09-12T12:13:18;19.90;99.90
13172;DHT22;6651;53.200;10.432;2023-09-12T12:15:44;19.90;99.90
13172;DHT22;6651;53.200;10.432;2023-09-12T12:18:10;19.90;99.90
13172;DHT22;6651;53.200;10.432;2023-09-12T12:20:35;19.90;99.90
13172;DHT22;6651;53.200;10.432;2023-09-12T12:23:01;19.90;99.90
13172;DHT22;6651;53.200;10.432;2023-09-12T12:25:28;19.90;99.90
13172;DHT22;6651;53.200;10.432;2023-09-12T12:27:56;19.90;99.90
13172;DHT22;6651;53.200;10.432;2023-09-12T12:30:22;19.90;99.90
13172;DHT22;6651;53.200;10.432;2023-09-12T12:32:48;19.90;99.90
13172;DHT22;6651;53.200;10.432;2023-09-12T12:35:22;19.90;99.90
13172;DHT22;6651;53.200;10.432;2023-09-12T12:37:54;19.90;99.90
13172;DHT22;6651;53.200;10.432;2023-09-12T12:40:21;19.90;99.90
13172;DHT22;6651;53.200;10.432;2023-09-12T12:42:47;19.90;99.90
13172;DHT22;6651;53.200;10.432;2023-09-12T12:45:20;20.00;99.90
13172;DHT22;6651;53.200;10.432;2023-09-12T12:47:46;20.00;99.90
13172;DHT22;6651;53.200;10.432;2023-09-12T12:50:17;20.00;99.90
13172;DHT22;6651;53.200;10.432;2023-09-12T12:52:47;20.00;99.90
13172;DHT22;6651;53.200;10.432;2023-09-12T12:55:13;20.00;99.90
13172;DHT22;6651;53.200;10.432;2023-09-12T12:57:43;20.00;99.90
13172;DHT22;6651;53.200;10.432;2023-09-12T13:00:11;20.00;99.90
13172;DHT22;6651;53.200;10.432;2023-09-12T13:02:38;20.00;99.90
13172;DHT22;6651;53.200;10.432;2023-09-12T13:05:04;19.90;99.90
13172;DHT22;6651;53.200;10.432;2023-09-12T13:07:34;19.90;99.90
13172;DHT22;6651;53.200;10.432;2023-09-12T13:10:01;19.90;99.90
13172;DHT22;6651;53.200;10.432;2023-09-12T13:12:27;20.00;99.90
13172;DHT22;6651;53.200;10.432;2023-09-12T13:14:53;20.00;99.90
13172;DHT22;6651;53.200;10.432;2023-09-12T13:17:19;20.00;99.90
13172;DHT22;6651;53.200;10.432;2023-09-12T13:19:44;20.00;99.90
13172;DHT22;6651;53.200;10.432;2023-09-12T13:22:13;20.10;99.90
13172;DHT22;6651;53.200;10.432;2023-09-12T13:24:39;20.10;99.90
13172;DHT22;6651;53.200;10.432;2023-09-12T13:27:05;20.20;99.90
13172;DHT22;6651;53.200;10.432;2023-09-12T13:29:30;20.20;99.90
13172;DHT22;6651;53.200;10.432;2023-09-12T13:31:56;20.20;99.90
13172;DHT22;6651;53.200;10.432;2023-09-12T13:34:21;20.20;99.90
13172;DHT22;6651;53.200;10.432;2023-09-12T13:36:48;20.20;99.90
13172;DHT22;6651;53.200;10.432;2023-09-12T13:39:14;20.30;99.90
13172;DHT22;6651;53.200;10.432;2023-09-12T13:41:39;20.40;99.90
13172;DHT22;6651;53.200;10.432;2023-09-12T13:44:05;20.50;99.90
13172;DHT22;6651;53.200;10.432;2023-09-12T13:46:31;20.60;99.90
13172;DHT22;6651;53.200;10.432;2023-09-12T13:48:57;20.70;99.90
13172;DHT22;6651;53.200;10.432;2023-09-12T13:51:26;20.70;99.90
13172;DHT22;6651;53.200;10.432;2023-09-12T13:53:52;20.80;99.90
13172;DHT22;6651;53.200;10.432;2023-09-12T13:56:17;20.90;99.90
13172;DHT22;6651;53.200;10.432;2023-09-12T13:58:43;21.00;99.90
13172;DHT22;6651;53.200;10.432;2023-09-12T14:01:09;21.00;99.90
13172;DHT22;6651;53.200;10.432;2023-09-12T14:03:34;21.00;99.90
13172;DHT22;6651;53.200;10.432;2023-09-12T14:06:00;21.00;99.90
13172;DHT22;6651;53.200;10.432;2023-09-12T14:08:26;21.10;99.90
13172;DHT22;6651;53.200;10.432;2023-09-12T14:10:51;21.20;99.90
13172;DHT22;6651;53.200;10.432;2023-09-12T14:13:17;21.20;99.90
13172;DHT22;6651;53.200;10.432;2023-09-12T14:15:42;21.20;99.90
13172;DHT22;6651;53.200;10.432;2023-09-12T14:18:08;21.20;99.90
13172;DHT22;6651;53.200;10.432;2023-09-12T14:20:34;21.20;99.90
13172;DHT22;6651;53.200;10.432;2023-09-12T14:22:59;21.10;99.90
13172;DHT22;6651;53.200;10.432;2023-09-12T14:25:27;21.30;99.90
13172;DHT22;6651;53.200;10.432;2023-09-12T14:27:52;21.40;99.90
13172;DHT22;6651;53.200;10.432;2023-09-12T14:30:18;21.50;99.90
13172;DHT22;6651;53.200;10.432;2023-09-12T14:32:46;21.50;99.90
13172;DHT22;6651;53.200;10.432;2023-09-12T14:35:11;21.60;99.90
13172;DHT22;6651;53.200;10.432;2023-09-12T14:37:37;21.60;99.90
13172;DHT22;6651;53.200;10.432;2023-09-12T14:40:04;21.70;99.90
13172;DHT22;6651;53.200;10.432;2023-09-12T14:42:30;21.70;99.90
13172;DHT22;6651;53.200;10.432;2023-09-12T14:44:56;21.60;99.90
13172;DHT22;6651;53.200;10.432;2023-09-12T14:47:22;21.50;99.90
13172;DHT22;6651;53.200;10.432;2023-09-12T14:49:48;21.50;99.90
13172;DHT22;6651;53.200;10.432;2023-09-12T14:52:13;21.40;99.90
13172;DHT22;6651;53.200;10.432;2023-09-12T14:54:39;21.40;99.90
13172;DHT22;6651;53.200;10.432;2023-09-12T14:57:04;21.30;99.90
13172;DHT22;6651;53.200;10.432;2023-09-12T14:59:30;21.30;99.90
13172;DHT22;6651;53.200;10.432;2023-09-12T15:01:56;21.40;99.90
13172;DHT22;6651;53.200;10.432;2023-09-12T15:04:21;21.40;99.90
13172;DHT22;6651;53.200;10.432;2023-09-12T15:06:47;21.40;99.90
13172;DHT22;6651;53.200;10.432;2023-09-12T15:09:13;21.30;99.90
13172;DHT22;6651;53.200;10.432;2023-09-12T15:11:38;21.40;99.90
13172;DHT22;6651;53.200;10.432;2023-09-12T15:14:04;21.50;99.90
13172;DHT22;6651;53.200;10.432;2023-09-12T15:16:29;21.50;99.90
13172;DHT22;6651;53.200;10.432;2023-09-12T15:18:59;21.40;99.90
13172;DHT22;6651;53.200;10.432;2023-09-12T15:21:25;21.40;99.90
13172;DHT22;6651;53.200;10.432;2023-09-12T15:23:51;21.60;99.90
13172;DHT22;6651;53.200;10.432;2023-09-12T15:26:16;21.60;99.90
13172;DHT22;6651;53.200;10.432;2023-09-12T15:28:42;21.60;99.90
13172;DHT22;6651;53.200;10.432;2023-09-12T15:31:07;21.60;99.90
13172;DHT22;6651;53.200;10.432;2023-09-12T15:33:33;21.60;99.90
13172;DHT22;6651;53.200;10.432;2023-09-12T15:35:59;21.60;99.90
13172;DHT22;6651;53.200;10.432;2023-09-12T15:38:24;21.60;99.90
13172;DHT22;6651;53.200;10.432;2023-09-12T15:40:51;21.60;99.90
13172;DHT22;6651;53.200;10.432;2023-09-12T15:43:17;21.60;99.90